sensor_id;sensor_type;location;lat;lon;timestamp;temperature;humidity
17154;DHT22;8692;52.164;7.558;2023-03-23T00:01:34;10.90;99.90
17154;DHT22;8692;52.164;7.558;2023-03-23T00:04:03;10.90;99.90
17154;DHT22;8692;52.164;7.558;2023-03-23T00:06:30;10.90;99.90
17154;DHT22;8692;52.164;7.558;2023-03-23T00:09:02;10.90;99.90
17154;DHT22;8692;52.164;7.558;2023-03-23T00:11:31;10.90;99.90
17154;DHT22;8692;52.164;7.558;2023-03-23T00:14:01;10.90;99.90
17154;DHT22;8692;52.164;7.558;2023-03-23T00:16:31;10.90;99.90
17154;DHT22;8692;52.164;7.558;2023-03-23T00:19:04;10.90;99.90
17154;DHT22;8692;52.164;7.558;2023-03-23T00:21:33;10.90;99.90
17154;DHT22;8692;52.164;7.558;2023-03-23T00:24:03;10.90;99.90
17154;DHT22;8692;52.164;7.558;2023-03-23T00:26:31;10.90;99.90
17154;DHT22;8692;52.164;7.558;2023-03-23T00:29:01;10.90;99.90
17154;DHT22;8692;52.164;7.558;2023-03-23T00:31:31;10.90;99.90
17154;DHT22;8692;52.164;7.558;2023-03-23T00:34:00;10.90;99.90
17154;DHT22;8692;52.164;7.558;2023-03-23T00:36:30;10.90;99.90
17154;DHT22;8692;52.164;7.558;2023-03-23T00:38:57;10.90;99.90
17154;DHT22;8692;52.164;7.558;2023-03-23T00:41:28;10.90;99.90
17154;DHT22;8692;52.164;7.558;2023-03-23T00:43:58;10.90;99.90
17154;DHT22;8692;52.164;7.558;2023-03-23T00:46:26;10.90;99.90
17154;DHT22;8692;52.164;7.558;2023-03-23T00:48:54;10.90;99.90
17154;DHT22;8692;52.164;7.558;2023-03-23T00:51:25;10.90;99.90
17154;DHT22;8692;52.164;7.558;2023-03-23T00:53:52;10.90;99.90
17154;DHT22;8692;52.164;7.558;2023-03-23T00:56:20;10.90;99.90
17154;DHT22;8692;52.164;7.558;2023-03-23T00:58:49;10.90;99.90
17154;DHT22;8692;52.164;7.558;2023-03-23T01:01:16;10.90;99.90
17154;DHT22;8692;52.164;7.558;2023-03-23T01:03:43;10.90;99.90
17154;DHT22;8692;52.164;7.558;2023-03-23T01:06:14;10.90;99.90
17154;DHT22;8692;52.164;7.558;2023-03-23T01:08:45;10.90;99.90
17154;DHT22;8692;52.164;7.558;2023-03-23T01:11:13;10.90;99.90
17154;DHT22;8692;52.164;7.558;2023-03-23T01:13:41;10.90;99.90
17154;DHT22;8692;52.164;7.558;2023-03-23T01:16:09;10.90;99.90
17154;DHT22;8692;52.164;7.558;2023-03-23T01:18:39;10.80;99.90
17154;DHT22;8692;52.164;7.558;2023-03-23T01:21:08;10.80;99.90
17154;DHT22;8692;52.164;7.558;2023-03-23T01:23:38;10.90;99.90
17154;DHT22;8692;52.164;7.558;2023-03-23T01:26:09;10.90;99.90
17154;DHT22;8692;52.164;7.558;2023-03-23T01:28:37;10.80;99.90
17154;DHT22;8692;52.164;7.558;2023-03-23T01:31:08;10.90;99.90
17154;DHT22;8692;52.164;7.558;2023-03-23T01:33:40;10.80;99.90
17154;DHT22;8692;52.164;7.558;2023-03-23T01:36:11;10.80;99.90
17154;DHT22;8692;52.164;7.558;2023-03-23T01:38:43;10.90;99.90
17154;DHT22;8692;52.164;7.558;2023-03-23T01:41:12;10.80;99.90
17154;DHT22;8692;52.164;7.558;2023-03-23T01:43:56;10.80;99.90
17154;DHT22;8692;52.164;7.558;2023-03-23T01:46:26;10.80;99.90
17154;DHT22;8692;52.164;7.558;2023-03-23T01:48:54;10.80;99.90
17154;DHT22;8692;52.164;7.558;2023-03-23T01:51:26;10.80;99.90
17154;DHT22;8692;52.164;7.558;2023-03-23T01:54:00;10.80;99.90
17154;DHT22;8692;52.164;7.558;2023-03-23T01:56:36;10.90;99.90
17154;DHT22;8692;52.164;7.558;2023-03-23T01:59:07;10.80;99.90
17154;DHT22;8692;52.164;7.558;2023-03-23T02:01:40;10.90;99.90
17154;DHT22;8692;52.164;7.558;2023-03-23T02:04:11;10.90;99.90
17154;DHT22;8692;52.164;7.558;2023-03-23T02:06:41;10.80;99.90
17154;DHT22;8692;52.164;7.558;2023-03-23T02:09:19;10.80;99.90
17154;DHT22;8692;52.164;7.558;2023-03-23T02:11:49;10.80;99.90
17154;DHT22;8692;52.164;7.558;2023-03-23T02:14:18;10.90;99.90
17154;DHT22;8692;52.164;7.558;2023-03-23T02:16:52;10.90;99.90
17154;DHT22;8692;52.164;7.558;2023-03-23T02:19:40;10.90;99.90
17154;DHT22;8692;52.164;7.558;2023-03-23T02:22:50;10.90;99.90
17154;DHT22;8692;52.164;7.558;2023-03-23T02:25:40;10.90;99.90
17154;DHT22;8692;52.164;7.558;2023-03-23T02:31:37;10.90;99.90
17154;DHT22;8692;52.164;7.558;2023-03-23T02:34:13;10.90;99.90
17154;DHT22;8692;52.164;7.558;2023-03-23T02:36:49;10.90;99.90
17154;DHT22;8692;52.164;7.558;2023-03-23T02:39:23;10.90;99.90
17154;DHT22;8692;52.164;7.558;2023-03-23T02:41:53;10.90;99.90
17154;DHT22;8692;52.164;7.558;2023-03-23T02:44:23;10.90;99.90
17154;DHT22;8692;52.164;7.558;2023-03-23T02:46:57;10.90;99.90
17154;DHT22;8692;52.164;7.558;2023-03-23T02:49:29;10.90;99.90
17154;DHT22;8692;52.164;7.558;2023-03-23T02:52:02;10.90;99.90
17154;DHT22;8692;52.164;7.558;2023-03-23T02:54:32;10.90;99.90
17154;DHT22;8692;52.164;7.558;2023-03-23T02:57:01;10.90;99.90
17154;DHT22;8692;52.164;7.558;2023-03-23T02:59:30;10.90;99.90
17154;DHT22;8692;52.164;7.558;2023-03-23T03:02:01;10.90;99.90
17154;DHT22;8692;52.164;7.558;2023-03-23T03:04:33;10.90;99.90
17154;DHT22;8692;52.164;7.558;2023-03-23T03:07:30;10.90;99.90
17154;DHT22;8692;52.164;7.558;2023-03-23T03:10:06;10.90;99.90
17154;DHT22;8692;52.164;7.558;2023-03-23T03:12:44;11.00;99.90
17154;DHT22;8692;52.164;7.558;2023-03-23T03:15:21;11.00;99.90
17154;DHT22;8692;52.164;7.558;2023-03-23T03:17:55;11.00;99.90
17154;DHT22;8692;52.164;7.558;2023-03-23T03:20:28;11.00;99.90
17154;DHT22;8692;52.164;7.558;2023-03-23T03:22:59;11.00;99.90
17154;DHT22;8692;52.164;7.558;2023-03-23T03:25:29;11.00;99.90
17154;DHT22;8692;52.164;7.558;2023-03-23T03:27:59;11.00;99.90
17154;DHT22;8692;52.164;7.558;2023-03-23T03:30:40;11.10;99.90
17154;DHT22;8692;52.164;7.558;2023-03-23T03:33:11;11.10;99.90
17154;DHT22;8692;52.164;7.558;2023-03-23T03:35:41;11.10;99.90
17154;DHT22;8692;52.164;7.558;2023-03-23T03:38:11;11.10;99.90
17154;DHT22;8692;52.164;7.558;2023-03-23T03:40:39;11.10;99.90
17154;DHT22;8692;52.164;7.558;2023-03-23T03:43:09;11.10;99.90
17154;DHT22;8692;52.164;7.558;2023-03-23T03:45:36;11.20;99.90
17154;DHT22;8692;52.164;7.558;2023-03-23T03:48:05;11.20;99.90
17154;DHT22;8692;52.164;7.558;2023-03-23T03:50:32;11.20;99.90
17154;DHT22;8692;52.164;7.558;2023-03-23T03:53:01;11.20;99.90
17154;DHT22;8692;52.164;7.558;2023-03-23T03:55:29;11.20;99.90
17154;DHT22;8692;52.164;7.558;2023-03-23T03:58:03;11.20;99.90
17154;DHT22;8692;52.164;7.558;2023-03-23T04:00:55;11.20;99.90
17154;DHT22;8692;52.164;7.558;2023-03-23T04:03:28;11.20;99.90
17154;DHT22;8692;52.164;7.558;2023-03-23T04:06:04;11.20;99.90
17154;DHT22;8692;52.164;7.558;2023-03-23T04:08:35;11.20;99.90
17154;DHT22;8692;52.164;7.558;2023-03-23T04:11:05;11.20;99.90
17154;DHT22;8692;52.164;7.558;2023-03-23T04:13:33;11.20;99.90
17154;DHT22;8692;52.164;7.558;2023-03-23T04:16:20;11.20;99.90
17154;DHT22;8692;52.164;7.558;2023-03-23T04:18:50;11.30;99.90
17154;DHT22;8692;52.164;7.558;2023-03-23T04:21:19;11.30;99.90
17154;DHT22;8692;52.164;7.558;2023-03-23T04:23:50;11.30;99.90
17154;DHT22;8692;52.164;7.558;2023-03-23T04:26:19;11.30;99.90
17154;DHT22;8692;52.164;7.558;2023-03-23T04:28:49;11.30;99.90
17154;DHT22;8692;52.164;7.558;2023-03-23T04:31:36;11.30;99.90
17154;DHT22;8692;52.164;7.558;2023-03-23T04:34:20;11.40;99.90
17154;DHT22;8692;52.164;7.558;2023-03-23T04:36:50;11.40;99.90
17154;DHT22;8692;52.164;7.558;2023-03-23T04:39:23;11.50;99.90
17154;DHT22;8692;52.164;7.558;2023-03-23T04:41:55;11.50;99.90
17154;DHT22;8692;52.164;7.558;2023-03-23T04:44:50;11.60;99.90
17154;DHT22;8692;52.164;7.558;2023-03-23T04:47:26;11.60;99.90
17154;DHT22;8692;52.164;7.558;2023-03-23T04:49:57;11.60;99.90
17154;DHT22;8692;52.164;7.558;2023-03-23T04:52:34;11.60;99.90
17154;DHT22;8692;52.164;7.558;2023-03-23T04:55:07;11.60;99.90
17154;DHT22;8692;52.164;7.558;2023-03-23T04:57:39;11.60;99.90
17154;DHT22;8692;52.164;7.558;2023-03-23T05:00:26;11.60;99.90
17154;DHT22;8692;52.164;7.558;2023-03-23T05:02:56;11.60;99.90
17154;DHT22;8692;52.164;7.558;2023-03-23T05:05:27;11.60;99.90
17154;DHT22;8692;52.164;7.558;2023-03-23T05:08:01;11.60;99.90
17154;DHT22;8692;52.164;7.558;2023-03-23T05:10:33;11.60;99.90
17154;DHT22;8692;52.164;7.558;2023-03-23T05:13:06;11.70;99.90
17154;DHT22;8692;52.164;7.558;2023-03-23T05:15:34;11.70;99.90
17154;DHT22;8692;52.164;7.558;2023-03-23T05:18:04;11.70;99.90
17154;DHT22;8692;52.164;7.558;2023-03-23T05:20:32;11.70;99.90
17154;DHT22;8692;52.164;7.558;2023-03-23T05:23:03;11.70;99.90
17154;DHT22;8692;52.164;7.558;2023-03-23T05:25:36;11.80;99.90
17154;DHT22;8692;52.164;7.558;2023-03-23T05:28:18;11.80;99.90
17154;DHT22;8692;52.164;7.558;2023-03-23T05:31:06;11.80;99.90
17154;DHT22;8692;52.164;7.558;2023-03-23T05:33:33;11.80;99.90
17154;DHT22;8692;52.164;7.558;2023-03-23T05:36:15;11.80;99.90
17154;DHT22;8692;52.164;7.558;2023-03-23T05:39:00;11.80;99.90
17154;DHT22;8692;52.164;7.558;2023-03-23T05:41:47;11.80;99.90
17154;DHT22;8692;52.164;7.558;2023-03-23T05:44:15;11.80;99.90
17154;DHT22;8692;52.164;7.558;2023-03-23T05:46:50;11.80;99.90
17154;DHT22;8692;52.164;7.558;2023-03-23T05:49:18;11.80;99.90
17154;DHT22;8692;52.164;7.558;2023-03-23T05:51:46;11.80;99.90
17154;DHT22;8692;52.164;7.558;2023-03-23T05:54:16;11.80;99.90
17154;DHT22;8692;52.164;7.558;2023-03-23T05:56:48;11.80;99.90
17154;DHT22;8692;52.164;7.558;2023-03-23T05:59:32;11.80;99.90
17154;DHT22;8692;52.164;7.558;2023-03-23T06:02:03;11.80;99.90
17154;DHT22;8692;52.164;7.558;2023-03-23T06:04:33;11.80;99.90
17154;DHT22;8692;52.164;7.558;2023-03-23T06:07:09;11.80;99.90
17154;DHT22;8692;52.164;7.558;2023-03-23T06:09:42;11.80;99.90
17154;DHT22;8692;52.164;7.558;2023-03-23T06:12:25;11.80;99.90
17154;DHT22;8692;52.164;7.558;2023-03-23T06:14:59;11.80;99.90
17154;DHT22;8692;52.164;7.558;2023-03-23T06:17:45;11.80;99.90
17154;DHT22;8692;52.164;7.558;2023-03-23T06:20:13;11.80;99.90
17154;DHT22;8692;52.164;7.558;2023-03-23T06:22:40;11.80;99.90
17154;DHT22;8692;52.164;7.558;2023-03-23T06:25:17;11.90;99.90
17154;DHT22;8692;52.164;7.558;2023-03-23T06:27:49;11.90;99.90
17154;DHT22;8692;52.164;7.558;2023-03-23T06:30:20;11.90;99.90
17154;DHT22;8692;52.164;7.558;2023-03-23T06:32:50;11.90;99.90
17154;DHT22;8692;52.164;7.558;2023-03-23T06:35:29;11.80;99.90
17154;DHT22;8692;52.164;7.558;2023-03-23T06:38:16;11.90;99.90
17154;DHT22;8692;52.164;7.558;2023-03-23T06:40:52;11.80;99.90
17154;DHT22;8692;52.164;7.558;2023-03-23T06:43:21;11.80;99.90
17154;DHT22;8692;52.164;7.558;2023-03-23T06:45:54;11.90;99.90
17154;DHT22;8692;52.164;7.558;2023-03-23T06:48:27;11.90;99.90
17154;DHT22;8692;52.164;7.558;2023-03-23T06:50:58;12.00;99.90
17154;DHT22;8692;52.164;7.558;2023-03-23T06:53:27;12.10;99.90
17154;DHT22;8692;52.164;7.558;2023-03-23T06:55:56;12.10;99.90
17154;DHT22;8692;52.164;7.558;2023-03-23T06:58:25;12.10;99.90
17154;DHT22;8692;52.164;7.558;2023-03-23T07:00:56;12.20;99.90
17154;DHT22;8692;52.164;7.558;2023-03-23T07:03:31;12.20;99.90
17154;DHT22;8692;52.164;7.558;2023-03-23T07:06:01;12.30;99.90
17154;DHT22;8692;52.164;7.558;2023-03-23T07:08:32;12.20;99.90
17154;DHT22;8692;52.164;7.558;2023-03-23T07:10:59;12.30;99.90
17154;DHT22;8692;52.164;7.558;2023-03-23T07:13:31;12.30;99.90
17154;DHT22;8692;52.164;7.558;2023-03-23T07:16:01;12.30;99.90
17154;DHT22;8692;52.164;7.558;2023-03-23T07:18:29;12.30;99.90
17154;DHT22;8692;52.164;7.558;2023-03-23T07:20:59;12.30;99.90
17154;DHT22;8692;52.164;7.558;2023-03-23T07:23:30;12.30;99.90
17154;DHT22;8692;52.164;7.558;2023-03-23T07:26:03;12.30;99.90
17154;DHT22;8692;52.164;7.558;2023-03-23T07:28:42;12.30;99.90
17154;DHT22;8692;52.164;7.558;2023-03-23T07:31:29;12.30;99.90
17154;DHT22;8692;52.164;7.558;2023-03-23T07:34:04;12.40;99.90
17154;DHT22;8692;52.164;7.558;2023-03-23T07:36:56;12.40;99.90
17154;DHT22;8692;52.164;7.558;2023-03-23T07:39:26;12.40;99.90
17154;DHT22;8692;52.164;7.558;2023-03-23T07:41:56;12.40;99.90
17154;DHT22;8692;52.164;7.558;2023-03-23T07:44:41;12.40;99.90
17154;DHT22;8692;52.164;7.558;2023-03-23T07:47:11;12.50;99.90
17154;DHT22;8692;52.164;7.558;2023-03-23T07:49:41;12.50;99.90
17154;DHT22;8692;52.164;7.558;2023-03-23T07:52:17;12.50;99.90
17154;DHT22;8692;52.164;7.558;2023-03-23T07:54:47;12.50;99.90
17154;DHT22;8692;52.164;7.558;2023-03-23T07:57:35;12.50;99.90
17154;DHT22;8692;52.164;7.558;2023-03-23T08:00:07;12.50;99.90
17154;DHT22;8692;52.164;7.558;2023-03-23T08:02:41;12.60;99.90
17154;DHT22;8692;52.164;7.558;2023-03-23T08:05:40;12.60;99.90
17154;DHT22;8692;52.164;7.558;2023-03-23T08:08:26;12.60;99.90
17154;DHT22;8692;52.164;7.558;2023-03-23T08:11:26;12.60;99.90
17154;DHT22;8692;52.164;7.558;2023-03-23T08:14:12;12.60;99.90
17154;DHT22;8692;52.164;7.558;2023-03-23T08:17:00;12.60;99.90
17154;DHT22;8692;52.164;7.558;2023-03-23T08:19:57;12.60;99.90
17154;DHT22;8692;52.164;7.558;2023-03-23T08:22:48;12.60;99.90
17154;DHT22;8692;52.164;7.558;2023-03-23T08:25:48;12.60;99.90
17154;DHT22;8692;52.164;7.558;2023-03-23T08:28:18;12.70;99.90
17154;DHT22;8692;52.164;7.558;2023-03-23T08:31:06;12.70;99.90
17154;DHT22;8692;52.164;7.558;2023-03-23T08:33:47;12.80;99.90
17154;DHT22;8692;52.164;7.558;2023-03-23T08:36:43;12.90;99.90
17154;DHT22;8692;52.164;7.558;2023-03-23T08:39:34;12.90;99.90
17154;DHT22;8692;52.164;7.558;2023-03-23T08:42:01;12.90;99.90
17154;DHT22;8692;52.164;7.558;2023-03-23T08:44:54;12.90;99.90
17154;DHT22;8692;52.164;7.558;2023-03-23T08:47:56;12.90;99.90
17154;DHT22;8692;52.164;7.558;2023-03-23T08:50:32;12.90;99.90
17154;DHT22;8692;52.164;7.558;2023-03-23T08:53:08;12.90;99.90
17154;DHT22;8692;52.164;7.558;2023-03-23T08:56:05;12.90;99.90
17154;DHT22;8692;52.164;7.558;2023-03-23T08:58:59;12.80;99.90
17154;DHT22;8692;52.164;7.558;2023-03-23T09:01:35;12.80;99.90
17154;DHT22;8692;52.164;7.558;2023-03-23T09:04:19;12.80;99.90
17154;DHT22;8692;52.164;7.558;2023-03-23T09:07:11;12.70;99.90
17154;DHT22;8692;52.164;7.558;2023-03-23T09:09:40;12.70;99.90
17154;DHT22;8692;52.164;7.558;2023-03-23T09:12:08;12.70;99.90
17154;DHT22;8692;52.164;7.558;2023-03-23T09:14:39;12.70;99.90
17154;DHT22;8692;52.164;7.558;2023-03-23T09:17:06;12.60;99.90
17154;DHT22;8692;52.164;7.558;2023-03-23T09:19:34;12.60;99.90
17154;DHT22;8692;52.164;7.558;2023-03-23T09:22:04;12.50;99.90
17154;DHT22;8692;52.164;7.558;2023-03-23T09:24:35;12.40;99.90
17154;DHT22;8692;52.164;7.558;2023-03-23T09:27:03;12.40;99.90
17154;DHT22;8692;52.164;7.558;2023-03-23T09:29:30;12.30;99.90
17154;DHT22;8692;52.164;7.558;2023-03-23T09:31:57;12.20;99.90
17154;DHT22;8692;52.164;7.558;2023-03-23T09:34:28;12.10;99.90
17154;DHT22;8692;52.164;7.558;2023-03-23T09:36:57;12.00;99.90
17154;DHT22;8692;52.164;7.558;2023-03-23T09:39:25;11.90;99.90
17154;DHT22;8692;52.164;7.558;2023-03-23T09:42:15;11.90;99.90
17154;DHT22;8692;52.164;7.558;2023-03-23T09:44:53;11.80;99.90
17154;DHT22;8692;52.164;7.558;2023-03-23T09:47:30;11.70;99.90
17154;DHT22;8692;52.164;7.558;2023-03-23T09:50:08;11.60;99.90
17154;DHT22;8692;52.164;7.558;2023-03-23T09:52:40;11.60;99.90
17154;DHT22;8692;52.164;7.558;2023-03-23T09:55:11;11.50;99.90
17154;DHT22;8692;52.164;7.558;2023-03-23T09:57:47;11.40;99.90
17154;DHT22;8692;52.164;7.558;2023-03-23T10:00:20;11.30;99.90
17154;DHT22;8692;52.164;7.558;2023-03-23T10:02:55;11.20;99.90
17154;DHT22;8692;52.164;7.558;2023-03-23T10:05:31;11.10;99.90
17154;DHT22;8692;52.164;7.558;2023-03-23T10:08:00;11.00;99.90
17154;DHT22;8692;52.164;7.558;2023-03-23T10:10:36;10.90;99.90
17154;DHT22;8692;52.164;7.558;2023-03-23T10:13:11;10.80;99.90
17154;DHT22;8692;52.164;7.558;2023-03-23T10:15:43;10.80;99.90
17154;DHT22;8692;52.164;7.558;2023-03-23T10:18:17;10.80;99.90
17154;DHT22;8692;52.164;7.558;2023-03-23T10:20:50;10.70;99.90
17154;DHT22;8692;52.164;7.558;2023-03-23T10:23:40;10.70;99.90
17154;DHT22;8692;52.164;7.558;2023-03-23T10:26:14;10.70;99.90
17154;DHT22;8692;52.164;7.558;2023-03-23T10:28:48;10.80;99.90
17154;DHT22;8692;52.164;7.558;2023-03-23T10:31:20;10.70;99.90
17154;DHT22;8692;52.164;7.558;2023-03-23T10:33:54;10.70;99.90
17154;DHT22;8692;52.164;7.558;2023-03-23T10:36:26;10.80;99.90
17154;DHT22;8692;52.164;7.558;2023-03-23T10:38:58;10.80;99.90
17154;DHT22;8692;52.164;7.558;2023-03-23T10:41:26;10.80;99.90
17154;DHT22;8692;52.164;7.558;2023-03-23T10:43:57;10.90;99.90
17154;DHT22;8692;52.164;7.558;2023-03-23T10:46:33;10.90;99.90
17154;DHT22;8692;52.164;7.558;2023-03-23T10:49:08;11.00;99.90
17154;DHT22;8692;52.164;7.558;2023-03-23T10:51:41;11.00;99.90
17154;DHT22;8692;52.164;7.558;2023-03-23T10:54:10;11.00;99.90
17154;DHT22;8692;52.164;7.558;2023-03-23T10:56:38;11.00;99.90
17154;DHT22;8692;52.164;7.558;2023-03-23T10:59:17;11.00;99.90
17154;DHT22;8692;52.164;7.558;2023-03-23T11:01:50;11.10;99.90
17154;DHT22;8692;52.164;7.558;2023-03-23T11:04:20;11.10;99.90
17154;DHT22;8692;52.164;7.558;2023-03-23T11:06:51;11.20;99.90
17154;DHT22;8692;52.164;7.558;2023-03-23T11:09:20;11.20;99.90
17154;DHT22;8692;52.164;7.558;2023-03-23T11:11:52;11.20;99.90
17154;DHT22;8692;52.164;7.558;2023-03-23T11:14:26;11.30;99.90
17154;DHT22;8692;52.164;7.558;2023-03-23T11:16:58;11.30;99.90
17154;DHT22;8692;52.164;7.558;2023-03-23T11:19:31;11.40;99.90
17154;DHT22;8692;52.164;7.558;2023-03-23T11:22:05;11.30;99.90
17154;DHT22;8692;52.164;7.558;2023-03-23T11:24:34;11.30;99.90
17154;DHT22;8692;52.164;7.558;2023-03-23T11:27:03;11.40;99.90
17154;DHT22;8692;52.164;7.558;2023-03-23T11:29:48;11.40;99.90
17154;DHT22;8692;52.164;7.558;2023-03-23T11:32:18;11.40;99.90
17154;DHT22;8692;52.164;7.558;2023-03-23T11:34:48;11.50;99.90
17154;DHT22;8692;52.164;7.558;2023-03-23T11:37:20;11.50;99.90
17154;DHT22;8692;52.164;7.558;2023-03-23T11:39:55;11.50;99.90
17154;DHT22;8692;52.164;7.558;2023-03-23T11:42:34;11.50;99.90
17154;DHT22;8692;52.164;7.558;2023-03-23T11:45:17;11.60;99.90
17154;DHT22;8692;52.164;7.558;2023-03-23T11:47:51;11.80;99.90
17154;DHT22;8692;52.164;7.558;2023-03-23T11:50:26;11.90;99.90
17154;DHT22;8692;52.164;7.558;2023-03-23T11:53:00;12.10;99.90
17154;DHT22;8692;52.164;7.558;2023-03-23T11:55:35;12.30;99.90
17154;DHT22;8692;52.164;7.558;2023-03-23T11:58:11;12.40;99.90
17154;DHT22;8692;52.164;7.558;2023-03-23T12:00:47;12.50;99.90
17154;DHT22;8692;52.164;7.558;2023-03-23T12:03:31;12.60;99.90
17154;DHT22;8692;52.164;7.558;2023-03-23T12:06:03;12.60;99.90
17154;DHT22;8692;52.164;7.558;2023-03-23T12:08:45;12.70;99.90
17154;DHT22;8692;52.164;7.558;2023-03-23T12:11:23;12.70;99.90
17154;DHT22;8692;52.164;7.558;2023-03-23T12:14:07;12.80;99.90
17154;DHT22;8692;52.164;7.558;2023-03-23T12:16:51;12.80;99.90
17154;DHT22;8692;52.164;7.558;2023-03-23T12:19:28;12.80;99.90
17154;DHT22;8692;52.164;7.558;2023-03-23T12:22:05;12.80;99.90
17154;DHT22;8692;52.164;7.558;2023-03-23T12:24:49;12.80;99.90
17154;DHT22;8692;52.164;7.558;2023-03-23T12:27:28;12.80;99.90
17154;DHT22;8692;52.164;7.558;2023-03-23T12:30:09;12.90;99.90
17154;DHT22;8692;52.164;7.558;2023-03-23T12:32:58;13.00;99.90
17154;DHT22;8692;52.164;7.558;2023-03-23T12:35:37;13.10;99.90
17154;DHT22;8692;52.164;7.558;2023-03-23T12:38:30;13.20;99.90
17154;DHT22;8692;52.164;7.558;2023-03-23T12:41:11;13.30;99.90
17154;DHT22;8692;52.164;7.558;2023-03-23T12:43:50;13.40;99.90
17154;DHT22;8692;52.164;7.558;2023-03-23T12:46:40;13.50;99.90
17154;DHT22;8692;52.164;7.558;2023-03-23T12:49:14;13.50;99.90
17154;DHT22;8692;52.164;7.558;2023-03-23T12:51:45;13.50;99.90
17154;DHT22;8692;52.164;7.558;2023-03-23T12:54:23;13.50;99.90
17154;DHT22;8692;52.164;7.558;2023-03-23T12:56:55;13.50;99.90
17154;DHT22;8692;52.164;7.558;2023-03-23T12:59:30;13.50;99.90
17154;DHT22;8692;52.164;7.558;2023-03-23T13:02:13;13.60;99.90
17154;DHT22;8692;52.164;7.558;2023-03-23T13:04:47;13.70;99.90
17154;DHT22;8692;52.164;7.558;2023-03-23T13:07:20;13.80;99.90
17154;DHT22;8692;52.164;7.558;2023-03-23T13:09:53;13.80;99.90
17154;DHT22;8692;52.164;7.558;2023-03-23T13:12:23;14.10;99.90
17154;DHT22;8692;52.164;7.558;2023-03-23T13:15:04;14.20;99.90
17154;DHT22;8692;52.164;7.558;2023-03-23T13:17:40;14.30;99.90
17154;DHT22;8692;52.164;7.558;2023-03-23T13:20:47;14.40;99.90
17154;DHT22;8692;52.164;7.558;2023-03-23T13:23:21;14.50;99.90
17154;DHT22;8692;52.164;7.558;2023-03-23T13:25:54;14.60;99.90
17154;DHT22;8692;52.164;7.558;2023-03-23T13:28:25;14.60;99.90
17154;DHT22;8692;52.164;7.558;2023-03-23T13:31:03;14.70;99.90
17154;DHT22;8692;52.164;7.558;2023-03-23T13:33:34;14.80;99.90
17154;DHT22;8692;52.164;7.558;2023-03-23T13:36:08;14.90;99.90
17154;DHT22;8692;52.164;7.558;2023-03-23T13:38:37;14.90;99.90
17154;DHT22;8692;52.164;7.558;2023-03-23T13:41:08;15.00;99.90
17154;DHT22;8692;52.164;7.558;2023-03-23T13:43:40;15.00;99.90
17154;DHT22;8692;52.164;7.558;2023-03-23T13:46:12;15.00;99.90
17154;DHT22;8692;52.164;7.558;2023-03-23T13:48:43;15.00;99.90
17154;DHT22;8692;52.164;7.558;2023-03-23T13:51:32;14.90;99.90
17154;DHT22;8692;52.164;7.558;2023-03-23T13:54:13;14.90;99.90
17154;DHT22;8692;52.164;7.558;2023-03-23T13:56:47;14.90;99.90
17154;DHT22;8692;52.164;7.558;2023-03-23T13:59:16;15.10;99.90
17154;DHT22;8692;52.164;7.558;2023-03-23T14:01:46;15.10;99.90
17154;DHT22;8692;52.164;7.558;2023-03-23T14:04:14;15.20;99.90
17154;DHT22;8692;52.164;7.558;2023-03-23T14:06:48;15.20;99.90
17154;DHT22;8692;52.164;7.558;2023-03-23T14:09:27;15.10;99.90
17154;DHT22;8692;52.164;7.558;2023-03-23T14:11:56;15.20;99.90
17154;DHT22;8692;52.164;7.558;2023-03-23T14:14:28;15.20;99.90
17154;DHT22;8692;52.164;7.558;2023-03-23T14:17:06;15.20;99.90
17154;DHT22;8692;52.164;7.558;2023-03-23T14:19:38;15.30;99.90
17154;DHT22;8692;52.164;7.558;2023-03-23T14:22:18;15.10;99.90
17154;DHT22;8692;52.164;7.558;2023-03-23T14:24:45;14.90;99.90
17154;DHT22;8692;52.164;7.558;2023-03-23T14:27:14;14.80;99.90
17154;DHT22;8692;52.164;7.558;2023-03-23T14:29:41;14.70;99.90
17154;DHT22;8692;52.164;7.558;2023-03-23T14:32:18;14.60;99.90
17154;DHT22;8692;52.164;7.558;2023-03-23T14:34:52;14.60;99.90
17154;DHT22;8692;52.164;7.558;2023-03-23T14:37:22;14.60;99.90
17154;DHT22;8692;52.164;7.558;2023-03-23T14:39:53;14.70;99.90
17154;DHT22;8692;52.164;7.558;2023-03-23T14:42:26;14.70;99.90
17154;DHT22;8692;52.164;7.558;2023-03-23T14:44:57;14.60;99.90
17154;DHT22;8692;52.164;7.558;2023-03-23T14:47:30;14.60;99.90
17154;DHT22;8692;52.164;7.558;2023-03-23T14:50:00;14.50;99.90
17154;DHT22;8692;52.164;7.558;2023-03-23T14:52:34;14.50;99.90
17154;DHT22;8692;52.164;7.558;2023-03-23T14:55:12;14.40;99.90
17154;DHT22;8692;52.164;7.558;2023-03-23T14:57:40;14.30;99.90
17154;DHT22;8692;52.164;7.558;2023-03-23T15:00:13;14.20;99.90
17154;DHT22;8692;52.164;7.558;2023-03-23T15:02:43;14.20;99.90
17154;DHT22;8692;52.164;7.558;2023-03-23T15:05:13;14.20;99.90
17154;DHT22;8692;52.164;7.558;2023-03-23T15:07:48;14.30;99.90
17154;DHT22;8692;52.164;7.558;2023-03-23T15:10:19;14.30;99.90
17154;DHT22;8692;52.164;7.558;2023-03-23T15:12:49;14.30;99.90
17154;DHT22;8692;52.164;7.558;2023-03-23T15:15:22;14.20;99.90
17154;DHT22;8692;52.164;7.558;2023-03-23T15:17:51;14.20;99.90
17154;DHT22;8692;52.164;7.558;2023-03-23T15:20:24;14.20;99.90
17154;DHT22;8692;52.164;7.558;2023-03-23T15:22:53;14.20;99.90
17154;DHT22;8692;52.164;7.558;2023-03-23T15:25:29;14.10;99.90
17154;DHT22;8692;52.164;7.558;2023-03-23T15:28:14;14.10;99.90
17154;DHT22;8692;52.164;7.558;2023-03-23T15:30:47;14.10;99.90
17154;DHT22;8692;52.164;7.558;2023-03-23T15:33:15;14.10;99.90
17154;DHT22;8692;52.164;7.558;2023-03-23T15:35:46;14.10;99.90
17154;DHT22;8692;52.164;7.558;2023-03-23T15:38:20;14.10;99.90
17154;DHT22;8692;52.164;7.558;2023-03-23T15:40:50;14.10;99.90
17154;DHT22;8692;52.164;7.558;2023-03-23T15:43:19;14.10;99.90
17154;DHT22;8692;52.164;7.558;2023-03-23T15:45:55;14.00;99.90
17154;DHT22;8692;52.164;7.558;2023-03-23T15:48:45;14.00;99.90
17154;DHT22;8692;52.164;7.558;2023-03-23T15:51:30;13.90;99.90
17154;DHT22;8692;52.164;7.558;2023-03-23T15:54:02;13.90;99.90
17154;DHT22;8692;52.164;7.558;2023-03-23T15:56:35;13.90;99.90
17154;DHT22;8692;52.164;7.558;2023-03-23T15:59:05;14.00;99.90
17154;DHT22;8692;52.164;7.558;2023-03-23T16:01:38;14.00;99.90
17154;DHT22;8692;52.164;7.558;2023-03-23T16:04:17;14.00;99.90
17154;DHT22;8692;52.164;7.558;2023-03-23T16:06:56;14.10;99.90
17154;DHT22;8692;52.164;7.558;2023-03-23T16:09:32;14.10;99.90
17154;DHT22;8692;52.164;7.558;2023-03-23T16:12:04;14.10;99.90
17154;DHT22;8692;52.164;7.558;2023-03-23T16:14:45;14.10;99.90
17154;DHT22;8692;52.164;7.558;2023-03-23T16:17:26;14.10;99.90
17154;DHT22;8692;52.164;7.558;2023-03-23T16:19:56;14.10;99.90
17154;DHT22;8692;52.164;7.558;2023-03-23T16:22:24;14.00;99.90
17154;DHT22;8692;52.164;7.558;2023-03-23T16:24:56;14.00;99.90
17154;DHT22;8692;52.164;7.558;2023-03-23T16:27:27;14.00;99.90
17154;DHT22;8692;52.164;7.558;2023-03-23T16:29:55;13.70;99.90
17154;DHT22;8692;52.164;7.558;2023-03-23T16:32:30;13.50;99.90
17154;DHT22;8692;52.164;7.558;2023-03-23T16:34:58;13.30;99.90